CST,Max TemperatureF,Mean TemperatureF,Min TemperatureF,Max Dew PointF,MeanDew PointF,Min DewpointF,Max Humidity, Mean Humidity, Min Humidity, Max Sea Level PressureIn, Mean Sea Level PressureIn, Min Sea Level PressureIn, Max VisibilityMiles, Mean VisibilityMiles, Min VisibilityMiles, Max Wind SpeedMPH, Mean Wind SpeedMPH, Max Gust SpeedMPH,PrecipitationIn, CloudCover, Events, WindDirDegrees
2013-12-1,68,60,52,57,55,52,100,90,64,30.18,30.06,29.92,15,10,4,14,5,21,0.00,3,,191
2013-12-2,68,56,44,54,48,43,100,84,46,29.91,29.79,29.67,15,10,4,8,2,,0.00,0,,132
2013-12-3,73,60,48,50,43,34,100,63,23,29.69,29.61,29.54,13,10,7,9,5,16,0.00,1,,146
2013-12-4,77,63,47,45,41,35,66,53,29,29.90,29.71,29.60,15,11,10,16,6,23,0.00,4,,143
2013-12-5,46,37,28,34,27,18,100,75,52,30.20,30.08,29.93,15,9,2,23,16,31,0.01,8,Rain-Snow,353
2013-12-6,32,28,24,32,26,19,100,91,74,30.54,30.31,30.14,15,7,1,18,12,25,0.01,7,Rain-Snow,352
2013-12-7,26,22,19,26,19,14,100,85,75,30.56,30.45,30.28,13,9,3,15,9,22,0.00,6,,360
2013-12-8,32,29,26,32,28,25,100,98,87,30.27,30.18,30.06,10,4,1,7,1,,0.00,8,,187
2013-12-9,32,30,28,32,27,20,100,86,70,30.43,30.26,30.17,10,7,2,16,8,20,0.00,8,,9
2013-12-10,35,27,19,25,20,12,81,72,48,30.53,30.42,30.35,13,11,10,13,7,17,0.00,0,,323
2013-12-11,42,34,26,30,25,23,86,72,53,30.61,30.45,30.33,13,11,10,10,5,,0.00,2,,78
2013-12-12,48,37,26,33,27,23,86,68,46,30.61,30.51,30.32,11,10,7,8,3,,0.00,2,,137
2013-12-13,47,44,42,48,37,30,100,79,61,30.31,30.04,29.81,13,7,2,15,8,22,0.00,5,Rain,160
2013-12-14,47,40,33,47,37,25,100,86,65,30.35,30.07,29.80,10,5,0,22,6,37,0.00,5,Fog,316
2013-12-15,59,44,28,33,29,25,86,68,29,30.35,30.30,30.24,13,10,7,7,3,,0.00,0,,223
2013-12-16,64,52,41,36,33,30,68,54,28,30.25,30.22,30.15,20,11,10,12,7,18,0.00,0,,190
2013-12-17,69,54,39,38,35,32,75,56,25,30.29,30.25,30.22,15,11,10,7,2,,0.00,0,,188
2013-12-18,69,56,42,45,40,36,81,61,28,30.27,30.16,30.02,15,12,10,18,4,28,0.00,1,,168
2013-12-19,71,62,53,61,53,46,88,75,57,30.01,29.89,29.75,20,11,10,21,13,36,0.00,4,,180
2013-12-20,68,52,34,61,51,35,100,86,77,29.86,29.82,29.78,13,7,1,17,11,28,0.00,8,Rain-Thunderstorm,239
2013-12-21,51,42,34,50,41,34,100,97,87,29.81,29.72,29.59,13,5,0,15,7,20,0.01,7,Fog-Rain-Snow-Thunderstorm,10
2013-12-22,43,36,29,43,32,25,100,84,57,30.41,30.11,29.81,20,10,0,16,11,24,0.00,5,Fog,334
2013-12-23,46,35,24,28,25,23,93,75,40,30.58,30.47,30.05,13,11,7,8,4,,0.00,0,,24
2013-12-24,50,38,26,34,27,23,86,69,43,30.57,30.43,30.26,15,11,7,16,7,22,0.00,0,,122
2013-12-25,55,46,36,39,32,28,86,69,50,30.43,30.34,30.28,15,11,7,12,8,18,0.00,1,,159
2013-12-26,53,42,30,34,32,28,97,77,38,30.47,30.41,30.34,13,8,3,6,3,,0.00,0,,352
2013-12-27,57,46,35,37,34,28,93,73,36,30.47,30.40,30.27,13,9,7,5,0,,0.00,1,,140
2013-12-28,59,49,39,41,37,34,87,59,42,30.34,30.16,29.99,13,10,7,12,3,14,0.00,2,,177
2013-12-29,50,41,30,39,30,23,80,73,66,30.31,30.12,29.96,13,10,9,20,7,28,0.00,5,,354
2013-12-30,41,34,28,19,16,14,64,48,36,30.43,30.33,30.26,15,11,10,13,8,17,0.00,4,,330
2013-12-31,51,40,28,25,23,21,80,49,30,30.44,30.35,30.22,13,11,10,14,3,,0.00,0,,159